Time;durP1;ratioP1;P1;durP2;ratioP2;P2;SDS_P1;SDS_P2;PMS_P1;PMS_P2;Temp;Humidity;BMP_temperature;BMP_pressure;BME280_temperature;BME280_humidity;BME280_pressure;Samples;Min_cycle;Max_cycle;Signal;HPM_P1;HPM_P2
2021/05/22 00:02:16;;;;;;;2.07;0.80;;;;;;;8.28;100.00;95559.59;5038604;28;20229;-73
2021/05/22 00:04:42;;;;;;;2.57;0.60;;;;;;;8.20;100.00;95567.53;5039434;28;20227;-72
2021/05/22 00:07:08;;;;;;;3.00;1.00;;;;;;;8.26;100.00;95569.44;5039512;28;20288;-73
2021/05/22 00:09:35;;;;;;;0.73;0.70;;;;;;;8.22;100.00;95565.53;5038798;28;20212;-73
2021/05/22 00:12:01;;;;;;;2.57;0.80;;;;;;;8.21;100.00;95562.09;5038609;28;20225;-73
2021/05/22 00:14:27;;;;;;;2.57;0.80;;;;;;;8.15;100.00;95544.44;5039976;28;20209;-73
2021/05/22 00:16:53;;;;;;;1.40;0.80;;;;;;;8.18;100.00;95535.41;5038198;28;20255;-73
2021/05/22 00:19:19;;;;;;;1.30;0.80;;;;;;;8.19;100.00;95553.59;5039038;28;20239;-72
2021/05/22 00:21:45;;;;;;;3.67;0.90;;;;;;;8.12;100.00;95551.81;5039632;28;20221;-73
2021/05/22 00:24:12;;;;;;;1.33;0.87;;;;;;;8.08;100.00;95580.25;5037912;28;20212;-72
2021/05/22 00:26:39;;;;;;;1.17;0.60;;;;;;;8.09;100.00;95568.72;5038745;28;20202;-72
2021/05/22 00:29:05;;;;;;;2.50;0.80;;;;;;;8.08;100.00;95600.41;5039182;28;20678;-72
2021/05/22 00:31:33;;;;;;;0.87;0.60;;;;;;;7.99;100.00;95606.72;5038877;28;21228;-73
2021/05/22 00:33:59;;;;;;;0.90;0.60;;;;;;;7.97;100.00;95625.25;5039294;28;20255;-72
2021/05/22 00:36:24;;;;;;;1.13;0.63;;;;;;;8.02;100.00;95632.59;5038296;28;20292;-72
2021/05/22 00:38:51;;;;;;;1.03;0.70;;;;;;;8.00;100.00;95621.47;5038743;28;20595;-73
2021/05/22 00:41:17;;;;;;;3.07;0.60;;;;;;;7.99;100.00;95604.91;5038046;28;20229;-72
2021/05/22 00:43:44;;;;;;;0.83;0.50;;;;;;;7.90;100.00;95624.34;5038793;28;20198;-72
2021/05/22 00:46:10;;;;;;;0.50;0.50;;;;;;;7.90;100.00;95642.69;5037785;28;20679;-72
2021/05/22 00:48:36;;;;;;;2.20;0.60;;;;;;;7.93;100.00;95655.44;5039147;28;20193;-72
2021/05/22 00:51:03;;;;;;;0.60;0.60;;;;;;;7.89;100.00;95635.81;5038299;28;20225;-72
2021/05/22 00:53:29;;;;;;;1.23;0.80;;;;;;;7.95;100.00;95621.97;5038186;28;20232;-72
2021/05/22 00:55:59;;;;;;;1.07;0.60;;;;;;;7.91;100.00;95625.13;5038354;28;20201;-72
2021/05/22 00:58:25;;;;;;;1.43;0.50;;;;;;;7.91;100.00;95640.88;5038577;28;20201;-72
2021/05/22 01:00:53;;;;;;;1.70;0.80;;;;;;;7.87;100.00;95635.16;5037937;28;20197;-72
2021/05/22 01:03:23;;;;;;;3.90;1.63;;;;;;;7.88;100.00;95615.00;5038578;28;20205;-72
2021/05/22 01:05:49;;;;;;;2.33;0.90;;;;;;;7.90;100.00;95634.00;5037041;28;21077;-73
2021/05/22 01:08:18;;;;;;;3.07;0.80;;;;;;;7.95;100.00;95660.50;5037995;28;20201;-72
2021/05/22 01:10:46;;;;;;;5.13;1.00;;;;;;;7.96;100.00;95638.53;5038573;28;20203;-72
2021/05/22 01:13:13;;;;;;;3.80;0.87;;;;;;;7.93;100.00;95628.41;5038424;28;20487;-72
2021/05/22 01:15:41;;;;;;;1.30;0.80;;;;;;;7.89;100.00;95625.31;5037494;28;20201;-72
2021/05/22 01:18:08;;;;;;;5.37;0.80;;;;;;;7.86;100.00;95637.97;5038676;28;20212;-72
2021/05/22 01:20:40;;;;;;;1.67;0.80;;;;;;;7.88;100.00;95636.78;5035996;28;21056;-72
2021/05/22 01:23:10;;;;;;;1.30;0.90;;;;;;;7.91;100.00;95641.69;5038459;28;20292;-72
2021/05/22 01:25:40;;;;;;;1.83;0.80;;;;;;;7.93;100.00;95639.72;5036679;28;20209;-73
2021/05/22 01:28:07;;;;;;;1.43;0.80;;;;;;;7.97;100.00;95632.31;5039588;28;20577;-72
2021/05/22 01:30:35;;;;;;;1.80;0.90;;;;;;;8.00;100.00;95613.59;5037957;28;20243;-73
2021/05/22 01:33:02;;;;;;;3.30;0.90;;;;;;;8.03;100.00;95606.19;5037449;28;20224;-73
2021/05/22 01:35:28;;;;;;;3.03;0.83;;;;;;;8.03;100.00;95603.56;5036962;28;20197;-72
2021/05/22 01:37:54;;;;;;;1.10;0.80;;;;;;;8.03;100.00;95597.47;5038807;28;20690;-72
2021/05/22 01:40:20;;;;;;;2.03;1.03;;;;;;;7.99;100.00;95581.31;5038007;28;20270;-72
2021/05/22 01:42:47;;;;;;;2.40;1.10;;;;;;;8.08;100.00;95574.16;5038223;28;20594;-72
2021/05/22 01:45:16;;;;;;;2.67;0.80;;;;;;;8.06;100.00;95570.91;5037297;28;20216;-73
2021/05/22 01:47:45;;;;;;;3.17;0.90;;;;;;;8.09;100.00;95571.34;5038072;28;20205;-72
2021/05/22 01:50:13;;;;;;;2.70;0.80;;;;;;;8.08;100.00;95580.25;5039457;28;20205;-73
2021/05/22 01:52:42;;;;;;;2.03;1.00;;;;;;;8.12;100.00;95588.56;5038291;28;20243;-73
2021/05/22 01:55:10;;;;;;;1.70;0.80;;;;;;;8.11;100.00;95592.19;5036684;28;20748;-72
2021/05/22 01:57:37;;;;;;;3.90;0.90;;;;;;;8.12;100.00;95591.19;5037496;28;20220;-72
2021/05/22 02:00:06;;;;;;;1.57;0.70;;;;;;;8.11;100.00;95600.06;5037606;28;20213;-72
2021/05/22 02:02:33;;;;;;;0.93;0.80;;;;;;;8.15;100.00;95590.88;5036599;28;20213;-73
2021/05/22 02:05:01;;;;;;;2.30;0.90;;;;;;;8.16;100.00;95595.09;5037479;28;20204;-72
2021/05/22 02:07:30;;;;;;;1.43;0.80;;;;;;;8.03;100.00;95603.56;5037975;28;20197;-72
2021/05/22 02:09:57;;;;;;;1.33;0.70;;;;;;;8.08;100.00;95595.16;5037314;28;20227;-73
2021/05/22 02:12:24;;;;;;;2.10;0.80;;;;;;;8.05;100.00;95598.13;5037910;28;20247;-72
2021/05/22 02:14:52;;;;;;;2.00;0.90;;;;;;;8.05;100.00;95595.50;5037768;28;20201;-73
2021/05/22 02:17:21;;;;;;;4.10;0.60;;;;;;;7.99;100.00;95601.47;5036030;28;20209;-73
2021/05/22 02:19:48;;;;;;;2.10;0.80;;;;;;;8.04;100.00;95604.38;5037552;28;20229;-73
2021/05/22 02:22:21;;;;;;;3.03;0.73;;;;;;;8.10;100.00;95609.72;5035027;28;20726;-73
2021/05/22 02:24:47;;;;;;;1.33;0.73;;;;;;;8.08;100.00;95610.88;5034726;28;20205;-72
2021/05/22 02:27:13;;;;;;;1.13;0.70;;;;;;;8.10;100.00;95617.59;5037379;28;20205;-73
2021/05/22 02:29:41;;;;;;;1.93;0.80;;;;;;;8.04;100.00;95614.88;5038418;28;20193;-73
2021/05/22 02:32:07;;;;;;;0.60;0.60;;;;;;;8.04;100.00;95607.00;5037216;28;20227;-73
2021/05/22 02:34:37;;;;;;;1.57;0.67;;;;;;;8.12;100.00;95615.63;5037882;28;20197;-73
2021/05/22 02:37:05;;;;;;;1.20;0.63;;;;;;;8.08;100.00;95610.88;5038415;28;20201;-72
2021/05/22 02:39:31;;;;;;;0.83;0.63;;;;;;;8.07;100.00;95599.59;5036890;28;20229;-72
2021/05/22 02:42:01;;;;;;;1.03;0.40;;;;;;;8.04;100.00;95597.34;5036783;28;20283;-72
2021/05/22 02:44:29;;;;;;;1.43;0.60;;;;;;;8.06;100.00;95587.47;5041766;28;20212;-73
2021/05/22 02:46:57;;;;;;;1.30;0.60;;;;;;;8.06;100.00;95578.78;5040847;28;20200;-72
2021/05/22 02:49:26;;;;;;;0.73;0.60;;;;;;;8.04;100.00;95581.59;5040854;28;20202;-72
2021/05/22 02:51:55;;;;;;;2.37;0.50;;;;;;;8.00;100.00;95582.91;5042386;28;20658;-73
2021/05/22 02:54:23;;;;;;;0.70;0.60;;;;;;;8.02;100.00;95580.13;5041122;28;20212;-73
2021/05/22 02:56:51;;;;;;;0.67;0.60;;;;;;;8.00;100.00;95587.34;5039940;28;20198;-73
2021/05/22 02:59:18;;;;;;;1.07;0.70;;;;;;;7.99;100.00;95597.03;5040376;28;20240;-73
2021/05/22 03:01:44;;;;;;;0.50;0.50;;;;;;;8.00;100.00;95608.34;5040619;28;20232;-73
2021/05/22 03:04:11;;;;;;;1.07;0.60;;;;;;;7.92;100.00;95600.53;5041317;28;20217;-73
2021/05/22 03:06:37;;;;;;;1.50;0.50;;;;;;;7.87;100.00;95608.94;5039853;28;20212;-72
2021/05/22 03:09:05;;;;;;;3.97;0.70;;;;;;;7.90;100.00;95624.34;5041358;28;20205;-73
2021/05/22 03:11:31;;;;;;;0.60;0.60;;;;;;;7.93;100.00;95623.97;5040507;28;20229;-73
2021/05/22 03:13:57;;;;;;;1.07;0.67;;;;;;;7.94;100.00;95614.28;5040233;28;20767;-72
2021/05/22 03:16:23;;;;;;;2.33;0.90;;;;;;;7.92;100.00;95611.03;5039150;28;20205;-73
2021/05/22 03:18:49;;;;;;;1.30;0.50;;;;;;;7.92;100.00;95603.16;5041086;28;20212;-73
2021/05/22 03:21:15;;;;;;;3.90;0.90;;;;;;;7.94;100.00;95599.38;5040467;28;20225;-73
2021/05/22 03:23:41;;;;;;;1.33;0.90;;;;;;;7.93;100.00;95608.22;5038351;28;20197;-72
2021/05/22 03:26:08;;;;;;;0.60;0.60;;;;;;;7.92;100.00;95587.44;5040281;28;20220;-73
2021/05/22 03:28:34;;;;;;;1.43;0.70;;;;;;;7.92;100.00;95590.06;5040816;28;20224;-73
2021/05/22 03:31:00;;;;;;;3.00;0.70;;;;;;;7.92;100.00;95596.09;5040838;28;20221;-73
2021/05/22 03:33:26;;;;;;;0.60;0.60;;;;;;;7.89;100.00;95596.47;5041099;28;20197;-73
2021/05/22 03:35:52;;;;;;;1.20;0.83;;;;;;;7.95;100.00;95602.81;5038987;28;20200;-73
2021/05/22 03:38:18;;;;;;;2.70;0.87;;;;;;;7.95;100.00;95605.44;5040300;28;20209;-73
2021/05/22 03:40:45;;;;;;;9.10;1.10;;;;;;;7.94;100.00;95611.66;5039495;28;20225;-73
2021/05/22 03:43:11;;;;;;;2.17;0.53;;;;;;;7.95;100.00;95600.19;5038885;28;20209;-73
2021/05/22 03:45:37;;;;;;;0.80;0.60;;;;;;;7.92;100.00;95584.81;5038828;28;20210;-73
2021/05/22 03:48:04;;;;;;;0.90;0.73;;;;;;;7.95;100.00;95587.06;5040558;28;20259;-72
2021/05/22 03:50:30;;;;;;;0.67;0.60;;;;;;;7.92;100.00;95608.41;5040273;28;20207;-73
2021/05/22 03:52:56;;;;;;;2.23;0.70;;;;;;;7.94;100.00;95607.25;5039668;28;20216;-72
2021/05/22 03:55:22;;;;;;;0.93;0.70;;;;;;;7.92;100.00;95608.41;5040006;28;20451;-73
2021/05/22 03:57:48;;;;;;;0.80;0.63;;;;;;;7.93;100.00;95607.44;5040359;28;20205;-72
2021/05/22 04:00:16;;;;;;;0.90;0.70;;;;;;;7.93;100.00;95620.53;5039484;28;20221;-73
2021/05/22 04:02:42;;;;;;;4.53;0.90;;;;;;;7.94;100.00;95622.16;5040857;28;20227;-73
2021/05/22 04:05:09;;;;;;;2.50;0.53;;;;;;;7.94;100.00;95624.78;5038557;28;20243;-72
2021/05/22 04:07:35;;;;;;;1.73;0.80;;;;;;;7.92;100.00;95618.91;5038346;28;20701;-72
2021/05/22 04:10:01;;;;;;;0.93;0.67;;;;;;;7.87;100.00;95623.84;5038851;28;20197;-72
2021/05/22 04:12:27;;;;;;;1.27;0.80;;;;;;;7.86;100.00;95622.22;5039427;28;20244;-73
2021/05/22 04:14:53;;;;;;;1.20;0.70;;;;;;;7.90;100.00;95623.50;5039644;28;20197;-72
2021/05/22 04:17:20;;;;;;;1.13;0.77;;;;;;;7.88;100.00;95615.00;5040418;28;20211;-72
2021/05/22 04:19:46;;;;;;;0.50;0.50;;;;;;;7.84;100.00;95615.53;5040448;28;20224;-72
2021/05/22 04:22:12;;;;;;;2.10;0.60;;;;;;;7.82;100.00;95623.56;5037974;28;20229;-72
2021/05/22 04:24:38;;;;;;;0.77;0.70;;;;;;;7.85;100.00;95632.91;5038043;28;20212;-73
2021/05/22 04:27:05;;;;;;;2.00;0.70;;;;;;;7.87;100.00;95636.97;5039233;28;20917;-72
2021/05/22 04:29:31;;;;;;;0.70;0.63;;;;;;;7.84;100.00;95634.72;5039402;28;20205;-72
2021/05/22 04:31:57;;;;;;;1.93;0.53;;;;;;;7.84;100.00;95629.47;5038863;28;20632;-73
2021/05/22 04:34:24;;;;;;;1.23;0.70;;;;;;;7.91;100.00;95627.75;5038683;28;20736;-72
2021/05/22 04:36:50;;;;;;;1.90;0.60;;;;;;;7.96;100.00;95625.44;5038860;28;20205;-73
2021/05/22 04:39:16;;;;;;;1.13;0.50;;;;;;;8.04;100.00;95622.72;5038893;28;20225;-72
2021/05/22 04:41:42;;;;;;;1.00;0.63;;;;;;;8.09;100.00;95633.53;5038196;28;20221;-72
2021/05/22 04:44:09;;;;;;;1.20;0.60;;;;;;;8.04;100.00;95641.09;5039298;28;20205;-72
2021/05/22 04:46:35;;;;;;;3.07;0.60;;;;;;;8.03;100.00;95636.84;5037391;28;20202;-72
2021/05/22 04:49:01;;;;;;;1.70;0.70;;;;;;;8.01;100.00;95638.84;5039765;28;20557;-72
2021/05/22 04:51:28;;;;;;;1.33;0.63;;;;;;;8.09;100.00;95633.53;5039546;28;20223;-72
2021/05/22 04:54:01;;;;;;;1.13;0.70;;;;;;;8.09;100.00;95636.94;5039309;28;20201;-73
2021/05/22 04:56:27;;;;;;;0.70;0.70;;;;;;;8.20;100.00;95635.78;5037138;28;20327;-73
2021/05/22 04:58:53;;;;;;;2.70;0.70;;;;;;;8.23;100.00;95646.72;5037715;28;20269;-72
2021/05/22 05:01:19;;;;;;;1.47;0.70;;;;;;;8.32;100.00;95650.91;5038449;28;20643;-73
2021/05/22 05:03:45;;;;;;;3.53;0.90;;;;;;;8.39;100.00;95649.22;5038216;28;20205;-73
2021/05/22 05:06:11;;;;;;;2.57;0.80;;;;;;;8.48;100.00;95646.31;5037115;28;20212;-72
2021/05/22 05:08:39;;;;;;;1.50;1.20;;;;;;;8.51;100.00;95648.59;5037811;28;20222;-73
2021/05/22 05:11:05;;;;;;;2.70;0.80;;;;;;;8.55;100.00;95652.50;5038104;28;20224;-72
2021/05/22 05:13:32;;;;;;;2.90;0.80;;;;;;;8.64;100.00;95655.84;5037943;28;20263;-72
2021/05/22 05:15:58;;;;;;;1.30;0.90;;;;;;;8.71;100.00;95662.84;5038112;28;20213;-72
2021/05/22 05:18:24;;;;;;;0.80;0.70;;;;;;;8.78;100.00;95665.56;5037807;28;20640;-72
2021/05/22 05:20:50;;;;;;;1.30;0.90;;;;;;;8.85;100.00;95663.84;5037812;28;20232;-73
2021/05/22 05:23:16;;;;;;;2.27;0.90;;;;;;;8.95;100.00;95656.50;5037366;28;20212;-73
2021/05/22 05:25:43;;;;;;;3.33;1.90;;;;;;;8.98;100.00;95671.94;5035262;28;20209;-73
2021/05/22 05:28:09;;;;;;;2.80;1.10;;;;;;;8.96;100.00;95666.84;5038482;28;20209;-73
2021/05/22 05:30:35;;;;;;;2.77;1.20;;;;;;;9.03;100.00;95665.13;5038343;28;20204;-73
2021/05/22 05:33:01;;;;;;;4.03;1.10;;;;;;;9.05;100.00;95671.03;5038420;28;20225;-74
2021/05/22 05:35:27;;;;;;;5.13;1.37;;;;;;;9.11;100.00;95659.75;5036936;28;20201;-72
2021/05/22 05:37:53;;;;;;;2.50;1.30;;;;;;;9.17;100.00;95656.41;5037800;28;20250;-73
2021/05/22 05:40:20;;;;;;;2.23;1.17;;;;;;;9.23;100.00;95653.06;5037963;28;20286;-72
2021/05/22 05:42:47;;;;;;;1.33;0.80;;;;;;;9.33;100.00;95658.84;5037959;28;20224;-72
2021/05/22 05:45:14;;;;;;;2.17;1.00;;;;;;;9.38;100.00;95646.78;5037367;28;20220;-73
2021/05/22 05:47:40;;;;;;;0.50;0.50;;;;;;;9.40;100.00;95651.88;5037789;28;20209;-72
2021/05/22 05:50:07;;;;;;;1.80;0.60;;;;;;;9.43;100.00;95656.75;5038307;28;20580;-72
2021/05/22 05:52:33;;;;;;;2.87;0.70;;;;;;;9.56;100.00;95646.38;5037848;28;20225;-73
2021/05/22 05:54:59;;;;;;;1.67;0.70;;;;;;;9.59;100.00;95643.41;5038281;28;20220;-73
2021/05/22 05:57:25;;;;;;;3.93;0.80;;;;;;;9.71;100.00;95646.16;5037127;28;20201;-73
2021/05/22 05:59:52;;;;;;;3.20;1.00;;;;;;;9.67;100.00;95651.16;5037761;28;20224;-72
2021/05/22 06:02:18;;;;;;;4.33;1.40;;;;;;;9.73;100.00;95643.34;5037811;28;20233;-72
2021/05/22 06:04:44;;;;;;;3.90;0.83;;;;;;;9.78;100.00;95654.13;5038025;28;20578;-73
2021/05/22 06:07:10;;;;;;;1.70;0.80;;;;;;;9.86;100.00;95657.47;5036675;28;20295;-72
2021/05/22 06:09:36;;;;;;;3.13;0.90;;;;;;;9.70;100.00;95657.69;5038412;28;20783;-73
2021/05/22 06:12:03;;;;;;;2.73;0.73;;;;;;;9.82;100.00;95655.38;5038497;28;20235;-72
2021/05/22 06:14:31;;;;;;;3.57;1.17;;;;;;;9.81;100.00;95659.00;5037139;28;20243;-72
2021/05/22 06:16:58;;;;;;;1.53;0.73;;;;;;;9.82;100.00;95658.03;5036651;28;20734;-72
2021/05/22 06:19:24;;;;;;;1.70;0.70;;;;;;;9.99;100.00;95662.91;5042283;28;20232;-72
2021/05/22 06:21:51;;;;;;;2.80;0.90;;;;;;;10.13;100.00;95654.13;5041753;28;20287;-73
2021/05/22 06:24:17;;;;;;;2.50;0.83;;;;;;;10.31;100.00;95665.03;5038522;28;20220;-72
2021/05/22 06:26:44;;;;;;;1.90;0.90;;;;;;;10.33;100.00;95663.84;5041939;28;20610;-72
2021/05/22 06:29:10;;;;;;;3.87;0.90;;;;;;;10.31;100.00;95672.94;5042291;28;20201;-73
2021/05/22 06:31:36;;;;;;;2.57;0.90;;;;;;;10.25;100.00;95668.41;5041410;28;20243;-73
2021/05/22 06:34:03;;;;;;;2.20;0.80;;;;;;;10.28;100.00;95668.03;5041825;28;20672;-72
2021/05/22 06:36:30;;;;;;;2.33;0.80;;;;;;;10.39;100.00;95665.69;5040366;28;20220;-72
2021/05/22 06:38:56;;;;;;;6.80;3.33;;;;;;;10.44;100.00;95667.78;5041129;28;20205;-72
2021/05/22 06:41:22;;;;;;;2.50;0.87;;;;;;;10.50;100.00;95665.19;5041186;28;20286;-73
2021/05/22 06:43:48;;;;;;;1.73;0.83;;;;;;;10.59;100.00;95669.31;5040476;28;20679;-73
2021/05/22 06:48:55;;;;;;;2.10;0.67;;;;;;;10.78;100.00;95675.75;5040840;28;20208;-73
2021/05/22 06:51:21;;;;;;;2.53;1.00;;;;;;;10.77;100.00;95684.66;5041934;28;21161;-72
2021/05/22 06:53:47;;;;;;;2.23;0.93;;;;;;;10.85;100.00;95687.16;5041220;28;20757;-73
2021/05/22 06:56:13;;;;;;;5.83;1.50;;;;;;;10.72;100.00;95687.06;5040799;28;20209;-73
2021/05/22 06:58:39;;;;;;;2.73;1.00;;;;;;;10.61;99.19;95684.94;5040683;28;20208;-73
2021/05/22 07:01:05;;;;;;;4.73;1.00;;;;;;;10.61;96.23;95692.84;5039708;28;20403;-73
2021/05/22 07:03:31;;;;;;;2.63;0.90;;;;;;;10.84;93.37;95691.59;5039471;28;20685;-72
2021/05/22 07:05:59;;;;;;;8.23;1.03;;;;;;;10.84;96.70;95690.81;5038966;28;20235;-72
2021/05/22 07:08:25;;;;;;;3.13;0.93;;;;;;;11.03;95.37;95685.66;5039965;28;20250;-73
2021/05/22 07:10:53;;;;;;;4.63;1.00;;;;;;;11.19;95.22;95690.66;5040005;28;20197;-72
2021/05/22 07:13:19;;;;;;;4.03;0.97;;;;;;;11.22;90.66;95683.13;5039952;28;21150;-72
2021/05/22 07:15:45;;;;;;;3.93;1.00;;;;;;;11.33;88.21;95693.16;5039987;28;20213;-73
2021/05/22 07:18:11;;;;;;;5.63;1.43;;;;;;;11.36;91.96;95692.75;5041038;28;20209;-73
2021/05/22 07:20:37;;;;;;;3.07;0.97;;;;;;;11.53;89.78;95694.09;5040364;28;20240;-73
2021/05/22 07:23:03;;;;;;;1.53;0.80;;;;;;;11.43;89.25;95695.44;5040180;28;20770;-72
2021/05/22 07:25:30;;;;;;;2.23;0.70;;;;;;;11.36;85.79;95694.59;5037957;28;20201;-72
2021/05/22 07:27:56;;;;;;;3.10;1.10;;;;;;;11.60;89.21;95702.88;5041180;28;20206;-73
2021/05/22 07:30:24;;;;;;;2.63;0.90;;;;;;;11.75;87.00;95693.00;5038335;28;20213;-73
2021/05/22 07:32:50;;;;;;;3.87;0.90;;;;;;;11.97;88.54;95691.84;5040054;28;21296;-73
2021/05/22 07:35:16;;;;;;;3.47;1.00;;;;;;;11.86;84.38;95692.41;5040571;28;20205;-73
2021/05/22 07:37:43;;;;;;;5.20;0.90;;;;;;;11.75;83.67;95693.00;5040188;28;20205;-72
2021/05/22 07:40:11;;;;;;;2.97;1.00;;;;;;;11.85;86.08;95699.53;5039607;28;20221;-74
2021/05/22 07:42:39;;;;;;;5.53;2.20;;;;;;;11.93;86.86;95686.16;5040264;28;20220;-73
2021/05/22 07:45:07;;;;;;;7.97;1.80;;;;;;;12.20;83.02;95693.13;5038606;28;20671;-73
2021/05/22 07:47:33;;;;;;;12.90;2.73;;;;;;;12.21;82.15;95689.47;5040460;28;20202;-73
2021/05/22 07:49:59;;;;;;;4.60;1.13;;;;;;;12.21;79.13;95687.63;5039999;28;20569;-73
2021/05/22 07:52:25;;;;;;;4.30;1.63;;;;;;;11.99;77.02;95700.38;5040498;28;20236;-72
2021/05/22 07:54:51;;;;;;;6.40;0.90;;;;;;;11.87;80.39;95691.41;5040076;28;20201;-73
2021/05/22 07:57:17;;;;;;;6.23;1.33;;;;;;;12.05;83.76;95684.53;5039640;28;20212;-72
2021/05/22 07:59:44;;;;;;;5.53;1.30;;;;;;;12.23;79.78;95682.97;5040205;28;20279;-73
2021/05/22 08:02:11;;;;;;;3.75;0.93;;;;;;;12.51;78.93;95686.28;5039454;28;20232;-73
2021/05/22 08:04:37;;;;;;;4.00;1.00;;;;;;;12.71;78.49;95681.00;5039255;28;20201;-73
2021/05/22 08:07:03;;;;;;;3.67;1.17;;;;;;;12.53;79.08;95684.25;5039185;28;20205;-72
2021/05/22 08:09:29;;;;;;;2.93;0.93;;;;;;;12.56;77.63;95686.47;5039413;28;20197;-73
2021/05/22 08:11:55;;;;;;;3.93;1.10;;;;;;;12.50;79.23;95703.16;5039097;28;20224;-73
2021/05/22 08:14:21;;;;;;;3.55;0.90;;;;;;;12.48;78.13;95697.25;5039898;28;20613;-73
2021/05/22 08:16:48;;;;;;;6.03;0.93;;;;;;;12.44;78.79;95701.31;5040068;28;20209;-72
2021/05/22 08:19:14;;;;;;;2.60;1.00;;;;;;;12.46;79.63;95691.34;5038874;28;20201;-73
2021/05/22 08:21:41;;;;;;;6.40;1.20;;;;;;;12.41;79.07;95701.72;5038872;28;20225;-73
2021/05/22 08:24:10;;;;;;;5.20;0.70;;;;;;;12.28;78.08;95685.84;5036826;28;20197;-73
2021/05/22 08:26:37;;;;;;;3.50;0.90;;;;;;;12.31;78.69;95700.47;5038188;28;20197;-73
2021/05/22 08:29:03;;;;;;;3.93;0.90;;;;;;;12.62;77.14;95693.59;5039750;28;20204;-73
2021/05/22 08:31:31;;;;;;;6.03;1.05;;;;;;;12.74;73.62;95685.88;5039604;28;20217;-72
2021/05/22 08:33:58;;;;;;;5.07;1.00;;;;;;;12.79;74.19;95689.53;5038874;28;20208;-73
2021/05/22 08:36:24;;;;;;;4.18;1.00;;;;;;;13.22;74.85;95693.41;5038993;28;20209;-73
2021/05/22 08:38:50;;;;;;;4.82;0.80;;;;;;;13.40;72.65;95689.91;5039331;28;20232;-73
2021/05/22 08:41:17;;;;;;;6.22;1.40;;;;;;;13.81;75.74;95684.28;5038177;28;20233;-73
2021/05/22 08:43:43;;;;;;;5.45;1.30;;;;;;;13.86;73.97;95681.81;5039326;28;20271;-72
2021/05/22 08:46:10;;;;;;;4.25;1.00;;;;;;;13.84;72.44;95687.31;5038641;28;20251;-73
2021/05/22 08:48:37;;;;;;;3.13;1.00;;;;;;;13.68;75.03;95684.31;5038581;28;20208;-72
2021/05/22 08:51:05;;;;;;;5.72;1.23;;;;;;;13.72;74.38;95682.88;5039175;28;20223;-73
2021/05/22 08:53:31;;;;;;;2.55;1.08;;;;;;;13.57;72.72;95675.19;5038441;28;20753;-73
2021/05/22 08:55:57;;;;;;;5.35;1.33;;;;;;;13.36;74.85;95687.06;5038226;28;20723;-73
2021/05/22 08:58:23;;;;;;;2.47;1.00;;;;;;;13.31;71.84;95687.69;5039302;28;20258;-73
2021/05/22 09:00:49;;;;;;;6.22;1.15;;;;;;;13.36;73.26;95672.00;5038571;28;20233;-72
2021/05/22 09:03:15;;;;;;;1.50;0.98;;;;;;;13.71;73.33;95679.44;5037607;28;20213;-72
2021/05/22 09:05:42;;;;;;;3.63;1.05;;;;;;;13.43;71.86;95678.09;5036715;28;20725;-73
2021/05/22 09:08:11;;;;;;;3.72;0.98;;;;;;;13.33;72.79;95679.53;5038406;28;20201;-74
2021/05/22 09:10:39;;;;;;;5.07;1.27;;;;;;;13.37;74.71;95675.47;5038824;28;20199;-74
2021/05/22 09:13:06;;;;;;;7.03;1.27;;;;;;;13.57;73.06;95677.84;5037447;28;20298;-74
2021/05/22 09:15:34;;;;;;;6.50;1.40;;;;;;;13.67;72.67;95682.69;5037815;28;20200;-73
2021/05/22 09:18:02;;;;;;;9.75;2.58;;;;;;;13.56;76.94;95673.56;5038586;28;20205;-74
2021/05/22 09:20:30;;;;;;;6.85;1.33;;;;;;;13.54;75.23;95682.75;5038542;28;20248;-73
2021/05/22 09:23:08;;;;;;;8.55;1.27;;;;;;;13.66;72.88;95678.44;5037426;28;20225;-73
2021/05/22 09:25:36;;;;;;;3.15;1.17;;;;;;;13.91;71.60;95682.00;5034596;28;20197;-74
2021/05/22 09:28:04;;;;;;;5.68;1.00;;;;;;;13.76;71.07;95687.56;5039496;28;20201;-74
2021/05/22 09:30:30;;;;;;;9.05;1.83;;;;;;;13.35;73.73;95685.44;5038074;28;20262;-74
2021/05/22 09:32:57;;;;;;;6.63;1.92;;;;;;;13.47;75.13;95688.06;5038531;28;20835;-73
2021/05/22 09:35:24;;;;;;;3.88;0.90;;;;;;;13.58;73.53;95687.41;5036878;28;20209;-73
2021/05/22 09:37:52;;;;;;;49.85;10.68;;;;;;;13.55;78.49;95698.41;5038525;28;20405;-72
2021/05/22 09:40:20;;;;;;;16.40;3.75;;;;;;;13.55;78.35;95679.88;5038157;28;20650;-74
2021/05/22 09:42:47;;;;;;;2.50;0.80;;;;;;;13.43;74.60;95688.69;5038094;28;20286;-74
2021/05/22 09:45:24;;;;;;;3.88;0.90;;;;;;;13.09;76.82;95686.28;5037477;28;20208;-73
2021/05/22 09:47:51;;;;;;;3.08;1.05;;;;;;;13.15;79.96;95689.94;5037670;28;20205;-73
2021/05/22 09:50:28;;;;;;;2.67;1.00;;;;;;;13.24;74.47;95678.97;5037641;28;20287;-72
2021/05/22 09:52:55;;;;;;;7.80;1.45;;;;;;;13.73;75.82;95685.31;5039646;28;20222;-73
2021/05/22 09:55:22;;;;;;;5.72;1.15;;;;;;;13.81;71.02;95674.50;5042329;28;20205;-72
2021/05/22 09:57:51;;;;;;;3.85;0.85;;;;;;;13.96;72.48;95669.75;5040956;28;20201;-75
2021/05/22 10:00:19;;;;;;;5.65;1.25;;;;;;;14.00;69.10;95665.63;5040786;28;20229;-74
2021/05/22 10:02:47;;;;;;;4.45;1.20;;;;;;;14.35;69.68;95669.56;5042150;28;20213;-74
2021/05/22 10:05:16;;;;;;;1.65;1.08;;;;;;;14.43;67.84;95664.81;5041521;28;20678;-73
2021/05/22 10:07:43;;;;;;;4.63;0.90;;;;;;;14.63;67.47;95656.75;5042753;28;20201;-74
2021/05/22 10:10:10;;;;;;;3.70;0.98;;;;;;;14.48;63.13;95656.22;5040725;28;20242;-74
2021/05/22 10:12:39;;;;;;;1.20;0.60;;;;;;;14.65;62.50;95666.91;5041778;28;20315;-73
2021/05/22 10:15:07;;;;;;;1.75;0.80;;;;;;;14.88;65.21;95661.00;5040381;28;20201;-72
2021/05/22 10:17:33;;;;;;;7.03;0.93;;;;;;;15.09;62.48;95663.28;5042516;28;20209;-75
2021/05/22 10:19:59;;;;;;;1.73;0.68;;;;;;;15.19;61.03;95669.72;5042039;28;20229;-75
2021/05/22 10:22:26;;;;;;;3.90;0.80;;;;;;;14.91;62.94;95661.38;5042450;28;20229;-75
2021/05/22 10:24:53;;;;;;;2.38;0.68;;;;;;;14.89;61.97;95674.06;5042813;28;20193;-74
2021/05/22 10:27:20;;;;;;;3.58;0.95;;;;;;;14.96;60.06;95664.19;5041169;28;20254;-75
2021/05/22 10:29:47;;;;;;;5.43;0.80;;;;;;;15.05;61.49;95672.72;5040850;28;20208;-74
2021/05/22 10:32:21;;;;;;;5.18;1.00;;;;;;;15.29;62.93;95664.75;5041911;28;20229;-75
2021/05/22 10:34:49;;;;;;;4.13;0.70;;;;;;;15.06;61.29;95664.53;5041490;28;20207;-74
2021/05/22 10:37:44;;;;;;;5.32;1.10;;;;;;;15.17;60.70;95666.44;5040023;28;20821;-74
2021/05/22 10:40:13;;;;;;;3.80;1.13;;;;;;;15.44;58.70;95667.84;5041808;28;20946;-73
2021/05/22 10:42:48;;;;;;;4.03;0.70;;;;;;;15.52;61.67;95664.91;5041527;28;20225;-75
2021/05/22 10:45:29;;;;;;;12.82;2.35;;;;;;;16.04;66.54;95663.25;5041480;28;20235;-74
2021/05/22 10:47:58;;;;;;;3.78;0.80;;;;;;;15.78;59.24;95677.91;5042123;28;20236;-74
2021/05/22 10:50:48;;;;;;;2.15;1.27;;;;;;;16.14;57.24;95660.88;5041131;28;20636;-75
2021/05/22 10:53:19;;;;;;;4.75;0.80;;;;;;;15.92;58.26;95678.34;5025284;28;20255;-76
2021/05/22 10:56:02;;;;;;;10.15;0.60;;;;;;;15.84;60.65;95670.66;5040528;28;20216;-73
2021/05/22 10:58:28;;;;;;;5.63;0.90;;;;;;;16.07;59.28;95664.66;5041027;28;20198;-75
2021/05/22 11:01:29;;;;;;;7.35;0.82;;;;;;;15.94;56.40;95652.34;5039852;28;20225;-74
2021/05/22 11:04:32;;;;;;;2.20;0.60;;;;;;;15.95;56.34;95663.78;5039331;28;20197;-74
2021/05/22 11:07:00;;;;;;;3.45;0.90;;;;;;;15.94;54.09;95662.97;5040051;28;20197;-75
2021/05/22 11:09:50;;;;;;;4.57;0.80;;;;;;;15.96;55.34;95668.88;5037705;28;20205;-76
2021/05/22 11:12:48;;;;;;;4.03;0.63;;;;;;;16.26;56.40;95674.25;5041805;28;20315;-76
2021/05/22 11:15:38;;;;;;;6.15;0.90;;;;;;;16.76;60.02;95661.25;5039251;28;20209;-76
2021/05/22 11:18:04;;;;;;;1.63;0.63;;;;;;;17.08;57.28;95664.38;5035342;28;20262;-76
2021/05/22 11:20:32;;;;;;;3.60;0.80;;;;;;;16.98;54.09;95658.81;5040813;28;20224;-76
2021/05/22 11:23:01;;;;;;;5.38;1.10;;;;;;;16.75;53.65;95664.94;5041362;28;20240;-76
2021/05/22 11:25:42;;;;;;;3.20;0.73;;;;;;;16.51;54.68;95654.47;5039229;28;20201;-76
2021/05/22 11:28:11;;;;;;;2.13;0.80;;;;;;;16.81;56.46;95656.00;5040165;28;20619;-76
2021/05/22 11:30:45;;;;;;;2.22;0.70;;;;;;;16.41;52.95;95656.03;5040695;28;20666;-76
2021/05/22 11:33:27;;;;;;;1.77;0.70;;;;;;;16.38;52.75;95661.81;5040450;28;20688;-76
2021/05/22 11:35:57;;;;;;;6.75;1.00;;;;;;;16.45;53.72;95651.91;5039078;28;20204;-76
2021/05/22 11:38:30;;;;;;;3.97;0.93;;;;;;;16.65;53.40;95650.56;5039240;28;20209;-76